sensor_id;sensor_type;location;lat;lon;timestamp;P1;durP1;ratioP1;P2;durP2;ratioP2
60257;SDS011;46115;44.484;11.314;2022-12-20T00:02:51;37.15;;;20.85;;
60257;SDS011;46115;44.484;11.314;2022-12-20T00:10:58;37.83;;;20.08;;
60257;SDS011;46115;44.484;11.314;2022-12-20T00:15:01;39.47;;;20.67;;
60257;SDS011;46115;44.484;11.314;2022-12-20T00:23:07;38.85;;;20.75;;
60257;SDS011;46115;44.484;11.314;2022-12-20T00:27:10;37.45;;;19.60;;
60257;SDS011;46115;44.484;11.314;2022-12-20T00:31:14;41.63;;;20.83;;
60257;SDS011;46115;44.484;11.314;2022-12-20T00:35:18;39.22;;;19.73;;
60257;SDS011;46115;44.484;11.314;2022-12-20T00:43:24;36.35;;;19.20;;
60257;SDS011;46115;44.484;11.314;2022-12-20T00:47:26;36.15;;;19.75;;
60257;SDS011;46115;44.484;11.314;2022-12-20T00:55:32;36.22;;;18.67;;
60257;SDS011;46115;44.484;11.314;2022-12-20T01:03:38;40.33;;;21.17;;
60257;SDS011;46115;44.484;11.314;2022-12-20T01:07:40;37.08;;;20.45;;
60257;SDS011;46115;44.484;11.314;2022-12-20T01:15:46;40.63;;;20.85;;
60257;SDS011;46115;44.484;11.314;2022-12-20T01:19:49;36.83;;;20.13;;
60257;SDS011;46115;44.484;11.314;2022-12-20T01:23:51;38.15;;;20.70;;
60257;SDS011;46115;44.484;11.314;2022-12-20T01:27:55;37.03;;;19.67;;
60257;SDS011;46115;44.484;11.314;2022-12-20T01:36:01;36.60;;;19.63;;
60257;SDS011;46115;44.484;11.314;2022-12-20T01:40:05;35.35;;;20.30;;
60257;SDS011;46115;44.484;11.314;2022-12-20T01:48:47;35.58;;;19.98;;
60257;SDS011;46115;44.484;11.314;2022-12-20T01:52:54;37.13;;;19.15;;
60257;SDS011;46115;44.484;11.314;2022-12-20T01:57:01;39.83;;;20.73;;
60257;SDS011;46115;44.484;11.314;2022-12-20T02:01:07;36.33;;;18.90;;
60257;SDS011;46115;44.484;11.314;2022-12-20T02:05:12;37.30;;;19.50;;
60257;SDS011;46115;44.484;11.314;2022-12-20T02:09:18;34.92;;;19.48;;
60257;SDS011;46115;44.484;11.314;2022-12-20T02:17:31;35.00;;;18.67;;
60257;SDS011;46115;44.484;11.314;2022-12-20T02:21:44;36.67;;;20.35;;
60257;SDS011;46115;44.484;11.314;2022-12-20T02:25:57;35.95;;;19.20;;
60257;SDS011;46115;44.484;11.314;2022-12-20T02:30:18;34.28;;;19.73;;
60257;SDS011;46115;44.484;11.314;2022-12-20T02:34:22;34.50;;;19.48;;
60257;SDS011;46115;44.484;11.314;2022-12-20T02:38:28;33.83;;;19.38;;
60257;SDS011;46115;44.484;11.314;2022-12-20T02:42:34;35.30;;;19.10;;
60257;SDS011;46115;44.484;11.314;2022-12-20T02:46:38;33.38;;;19.85;;
60257;SDS011;46115;44.484;11.314;2022-12-20T02:50:42;34.15;;;19.50;;
60257;SDS011;46115;44.484;11.314;2022-12-20T02:54:47;34.72;;;19.33;;
60257;SDS011;46115;44.484;11.314;2022-12-20T03:02:57;31.80;;;17.90;;
60257;SDS011;46115;44.484;11.314;2022-12-20T03:07:19;33.10;;;17.90;;
60257;SDS011;46115;44.484;11.314;2022-12-20T03:11:23;32.83;;;18.70;;
60257;SDS011;46115;44.484;11.314;2022-12-20T03:19:32;32.15;;;17.45;;
60257;SDS011;46115;44.484;11.314;2022-12-20T03:23:35;32.75;;;18.50;;
60257;SDS011;46115;44.484;11.314;2022-12-20T03:27:37;34.25;;;18.23;;
60257;SDS011;46115;44.484;11.314;2022-12-20T03:31:40;33.22;;;17.83;;
60257;SDS011;46115;44.484;11.314;2022-12-20T03:35:44;35.05;;;18.10;;
60257;SDS011;46115;44.484;11.314;2022-12-20T03:39:48;33.15;;;18.00;;
60257;SDS011;46115;44.484;11.314;2022-12-20T03:43:51;31.77;;;18.23;;
60257;SDS011;46115;44.484;11.314;2022-12-20T03:47:56;34.85;;;18.80;;
60257;SDS011;46115;44.484;11.314;2022-12-20T03:52:03;33.90;;;17.60;;
60257;SDS011;46115;44.484;11.314;2022-12-20T03:56:05;33.15;;;18.55;;
60257;SDS011;46115;44.484;11.314;2022-12-20T04:00:09;38.10;;;18.80;;
60257;SDS011;46115;44.484;11.314;2022-12-20T04:04:15;35.50;;;17.80;;
60257;SDS011;46115;44.484;11.314;2022-12-20T04:08:19;33.10;;;18.33;;
60257;SDS011;46115;44.484;11.314;2022-12-20T04:12:24;32.60;;;17.42;;
60257;SDS011;46115;44.484;11.314;2022-12-20T04:16:27;36.05;;;19.27;;
60257;SDS011;46115;44.484;11.314;2022-12-20T04:20:31;35.15;;;18.83;;
60257;SDS011;46115;44.484;11.314;2022-12-20T04:24:48;37.40;;;18.77;;
60257;SDS011;46115;44.484;11.314;2022-12-20T04:28:59;35.28;;;18.70;;
60257;SDS011;46115;44.484;11.314;2022-12-20T04:33:02;34.80;;;18.40;;
60257;SDS011;46115;44.484;11.314;2022-12-20T04:37:05;36.42;;;19.08;;
60257;SDS011;46115;44.484;11.314;2022-12-20T04:41:20;34.25;;;18.65;;
60257;SDS011;46115;44.484;11.314;2022-12-20T04:45:26;37.50;;;19.17;;
60257;SDS011;46115;44.484;11.314;2022-12-20T04:49:30;37.70;;;19.08;;
60257;SDS011;46115;44.484;11.314;2022-12-20T04:53:32;34.90;;;18.30;;
60257;SDS011;46115;44.484;11.314;2022-12-20T04:58:04;36.03;;;19.35;;
60257;SDS011;46115;44.484;11.314;2022-12-20T05:02:08;40.55;;;20.98;;
60257;SDS011;46115;44.484;11.314;2022-12-20T05:06:24;43.15;;;21.27;;
60257;SDS011;46115;44.484;11.314;2022-12-20T05:10:27;43.25;;;21.98;;
60257;SDS011;46115;44.484;11.314;2022-12-20T05:14:34;48.67;;;22.48;;
60257;SDS011;46115;44.484;11.314;2022-12-20T05:18:36;43.45;;;21.92;;
60257;SDS011;46115;44.484;11.314;2022-12-20T05:22:40;38.72;;;20.00;;
60257;SDS011;46115;44.484;11.314;2022-12-20T05:27:00;44.28;;;22.15;;
60257;SDS011;46115;44.484;11.314;2022-12-20T05:31:05;40.45;;;21.38;;
60257;SDS011;46115;44.484;11.314;2022-12-20T05:35:09;41.05;;;21.08;;
60257;SDS011;46115;44.484;11.314;2022-12-20T05:39:13;42.75;;;21.80;;
60257;SDS011;46115;44.484;11.314;2022-12-20T05:43:17;39.58;;;19.70;;
60257;SDS011;46115;44.484;11.314;2022-12-20T05:47:22;38.60;;;18.45;;
60257;SDS011;46115;44.484;11.314;2022-12-20T05:51:33;36.22;;;18.17;;
60257;SDS011;46115;44.484;11.314;2022-12-20T05:55:44;37.22;;;18.95;;
60257;SDS011;46115;44.484;11.314;2022-12-20T05:59:50;34.33;;;17.65;;
60257;SDS011;46115;44.484;11.314;2022-12-20T06:03:59;36.10;;;17.83;;
60257;SDS011;46115;44.484;11.314;2022-12-20T06:08:01;36.47;;;18.83;;
60257;SDS011;46115;44.484;11.314;2022-12-20T06:12:04;34.78;;;18.75;;
60257;SDS011;46115;44.484;11.314;2022-12-20T06:16:08;44.00;;;22.73;;
60257;SDS011;46115;44.484;11.314;2022-12-20T06:20:13;40.40;;;21.83;;
60257;SDS011;46115;44.484;11.314;2022-12-20T06:24:19;42.78;;;20.83;;
60257;SDS011;46115;44.484;11.314;2022-12-20T06:28:26;43.42;;;22.05;;
60257;SDS011;46115;44.484;11.314;2022-12-20T06:36:32;43.95;;;22.27;;
60257;SDS011;46115;44.484;11.314;2022-12-20T06:40:34;41.83;;;21.77;;
60257;SDS011;46115;44.484;11.314;2022-12-20T06:44:37;39.38;;;19.65;;
60257;SDS011;46115;44.484;11.314;2022-12-20T06:48:40;36.75;;;19.70;;
60257;SDS011;46115;44.484;11.314;2022-12-20T06:52:46;36.15;;;19.52;;
60257;SDS011;46115;44.484;11.314;2022-12-20T06:56:48;34.63;;;18.70;;
60257;SDS011;46115;44.484;11.314;2022-12-20T07:00:51;37.00;;;19.45;;
60257;SDS011;46115;44.484;11.314;2022-12-20T07:04:55;37.05;;;18.42;;
60257;SDS011;46115;44.484;11.314;2022-12-20T07:08:58;37.35;;;19.40;;
60257;SDS011;46115;44.484;11.314;2022-12-20T07:13:02;36.78;;;19.00;;
60257;SDS011;46115;44.484;11.314;2022-12-20T07:17:05;42.10;;;19.55;;
60257;SDS011;46115;44.484;11.314;2022-12-20T07:21:08;37.83;;;19.42;;
60257;SDS011;46115;44.484;11.314;2022-12-20T07:25:12;36.33;;;20.27;;
60257;SDS011;46115;44.484;11.314;2022-12-20T07:29:14;35.35;;;18.92;;
60257;SDS011;46115;44.484;11.314;2022-12-20T07:33:18;36.47;;;18.50;;
60257;SDS011;46115;44.484;11.314;2022-12-20T07:37:20;33.13;;;18.00;;
60257;SDS011;46115;44.484;11.314;2022-12-20T07:41:24;31.80;;;17.48;;
60257;SDS011;46115;44.484;11.314;2022-12-20T07:45:27;34.83;;;18.17;;
60257;SDS011;46115;44.484;11.314;2022-12-20T07:49:29;28.25;;;17.02;;
60257;SDS011;46115;44.484;11.314;2022-12-20T07:57:38;32.28;;;16.98;;
60257;SDS011;46115;44.484;11.314;2022-12-20T08:01:44;30.15;;;17.27;;
60257;SDS011;46115;44.484;11.314;2022-12-20T08:05:47;33.97;;;17.25;;
60257;SDS011;46115;44.484;11.314;2022-12-20T08:09:52;30.95;;;17.58;;
60257;SDS011;46115;44.484;11.314;2022-12-20T08:13:56;29.98;;;17.25;;
60257;SDS011;46115;44.484;11.314;2022-12-20T08:17:59;30.40;;;16.83;;
60257;SDS011;46115;44.484;11.314;2022-12-20T08:26:03;37.85;;;19.85;;
60257;SDS011;46115;44.484;11.314;2022-12-20T08:30:08;55.45;;;27.40;;
60257;SDS011;46115;44.484;11.314;2022-12-20T08:34:11;43.30;;;22.90;;
60257;SDS011;46115;44.484;11.314;2022-12-20T08:42:16;67.72;;;31.50;;
60257;SDS011;46115;44.484;11.314;2022-12-20T08:46:19;65.82;;;32.22;;
60257;SDS011;46115;44.484;11.314;2022-12-20T08:50:22;67.63;;;32.53;;
60257;SDS011;46115;44.484;11.314;2022-12-20T08:54:26;67.53;;;31.70;;
60257;SDS011;46115;44.484;11.314;2022-12-20T08:58:29;65.70;;;32.53;;
60257;SDS011;46115;44.484;11.314;2022-12-20T09:02:33;65.22;;;32.58;;
60257;SDS011;46115;44.484;11.314;2022-12-20T09:06:37;60.80;;;31.77;;
60257;SDS011;46115;44.484;11.314;2022-12-20T09:10:40;68.50;;;33.90;;
60257;SDS011;46115;44.484;11.314;2022-12-20T09:14:43;61.25;;;32.00;;
60257;SDS011;46115;44.484;11.314;2022-12-20T09:18:48;72.28;;;35.15;;
60257;SDS011;46115;44.484;11.314;2022-12-20T09:22:51;74.20;;;37.10;;
60257;SDS011;46115;44.484;11.314;2022-12-20T09:30:56;79.20;;;38.40;;
60257;SDS011;46115;44.484;11.314;2022-12-20T09:35:01;77.72;;;38.78;;
60257;SDS011;46115;44.484;11.314;2022-12-20T09:39:04;82.20;;;40.63;;
60257;SDS011;46115;44.484;11.314;2022-12-20T09:43:07;77.25;;;40.03;;
60257;SDS011;46115;44.484;11.314;2022-12-20T09:47:12;80.90;;;40.97;;
60257;SDS011;46115;44.484;11.314;2022-12-20T09:51:24;76.75;;;39.95;;
60257;SDS011;46115;44.484;11.314;2022-12-20T09:55:37;76.68;;;39.47;;
60257;SDS011;46115;44.484;11.314;2022-12-20T09:59:44;79.40;;;40.53;;
60257;SDS011;46115;44.484;11.314;2022-12-20T10:03:47;76.47;;;39.08;;
60257;SDS011;46115;44.484;11.314;2022-12-20T10:07:53;78.90;;;40.00;;
60257;SDS011;46115;44.484;11.314;2022-12-20T10:12:07;77.18;;;39.63;;
60257;SDS011;46115;44.484;11.314;2022-12-20T10:16:25;78.45;;;40.75;;
60257;SDS011;46115;44.484;11.314;2022-12-20T10:20:40;84.90;;;40.42;;
60257;SDS011;46115;44.484;11.314;2022-12-20T10:24:57;81.07;;;41.15;;
60257;SDS011;46115;44.484;11.314;2022-12-20T10:29:13;88.68;;;42.08;;
60257;SDS011;46115;44.484;11.314;2022-12-20T10:33:17;87.38;;;42.28;;
60257;SDS011;46115;44.484;11.314;2022-12-20T10:37:22;89.75;;;42.72;;
60257;SDS011;46115;44.484;11.314;2022-12-20T10:41:27;86.35;;;42.38;;
60257;SDS011;46115;44.484;11.314;2022-12-20T10:45:32;87.18;;;42.40;;
60257;SDS011;46115;44.484;11.314;2022-12-20T10:49:37;91.70;;;44.22;;
60257;SDS011;46115;44.484;11.314;2022-12-20T10:53:50;96.38;;;44.80;;
60257;SDS011;46115;44.484;11.314;2022-12-20T10:57:57;96.43;;;45.70;;
60257;SDS011;46115;44.484;11.314;2022-12-20T11:02:15;105.57;;;46.35;;
60257;SDS011;46115;44.484;11.314;2022-12-20T11:06:27;100.72;;;47.97;;
60257;SDS011;46115;44.484;11.314;2022-12-20T11:10:40;97.30;;;47.88;;
60257;SDS011;46115;44.484;11.314;2022-12-20T11:14:45;104.97;;;47.47;;
60257;SDS011;46115;44.484;11.314;2022-12-20T11:18:50;104.15;;;46.80;;
60257;SDS011;46115;44.484;11.314;2022-12-20T11:23:01;100.38;;;47.58;;
60257;SDS011;46115;44.484;11.314;2022-12-20T11:27:15;97.32;;;45.47;;
60257;SDS011;46115;44.484;11.314;2022-12-20T11:31:26;84.55;;;43.78;;
60257;SDS011;46115;44.484;11.314;2022-12-20T11:35:46;90.22;;;44.13;;
60257;SDS011;46115;44.484;11.314;2022-12-20T11:40:02;87.57;;;44.90;;
60257;SDS011;46115;44.484;11.314;2022-12-20T11:44:19;87.80;;;44.83;;
60257;SDS011;46115;44.484;11.314;2022-12-20T11:48:37;88.68;;;44.95;;
60257;SDS011;46115;44.484;11.314;2022-12-20T11:52:51;87.53;;;44.28;;
60257;SDS011;46115;44.484;11.314;2022-12-20T11:57:01;85.55;;;44.13;;
60257;SDS011;46115;44.484;11.314;2022-12-20T12:01:13;93.82;;;45.47;;
60257;SDS011;46115;44.484;11.314;2022-12-20T12:05:20;90.70;;;44.65;;
60257;SDS011;46115;44.484;11.314;2022-12-20T12:09:28;86.60;;;44.33;;
60257;SDS011;46115;44.484;11.314;2022-12-20T12:13:36;84.80;;;41.80;;
60257;SDS011;46115;44.484;11.314;2022-12-20T12:17:42;84.38;;;42.22;;
60257;SDS011;46115;44.484;11.314;2022-12-20T12:21:49;86.35;;;43.85;;
60257;SDS011;46115;44.484;11.314;2022-12-20T12:25:58;90.72;;;43.65;;
60257;SDS011;46115;44.484;11.314;2022-12-20T12:30:10;80.05;;;41.90;;
60257;SDS011;46115;44.484;11.314;2022-12-20T12:34:16;81.47;;;43.47;;
60257;SDS011;46115;44.484;11.314;2022-12-20T12:43:16;82.37;;;42.87;;
60257;SDS011;46115;44.484;11.314;2022-12-20T12:47:35;88.50;;;42.20;;
60257;SDS011;46115;44.484;11.314;2022-12-20T12:51:42;84.72;;;42.78;;
60257;SDS011;46115;44.484;11.314;2022-12-20T12:55:52;85.35;;;41.92;;
60257;SDS011;46115;44.484;11.314;2022-12-20T12:59:56;78.20;;;41.03;;
60257;SDS011;46115;44.484;11.314;2022-12-20T13:04:09;84.03;;;41.92;;
60257;SDS011;46115;44.484;11.314;2022-12-20T13:08:23;87.47;;;42.65;;
60257;SDS011;46115;44.484;11.314;2022-12-20T13:12:57;84.22;;;41.17;;
60257;SDS011;46115;44.484;11.314;2022-12-20T13:21:41;83.60;;;41.67;;
60257;SDS011;46115;44.484;11.314;2022-12-20T13:25:47;81.57;;;42.28;;
60257;SDS011;46115;44.484;11.314;2022-12-20T13:30:01;83.78;;;42.50;;
60257;SDS011;46115;44.484;11.314;2022-12-20T13:34:35;84.43;;;41.40;;
60257;SDS011;46115;44.484;11.314;2022-12-20T13:38:58;81.80;;;42.17;;
60257;SDS011;46115;44.484;11.314;2022-12-20T13:43:04;78.93;;;40.13;;
60257;SDS011;46115;44.484;11.314;2022-12-20T13:47:19;73.25;;;40.53;;
60257;SDS011;46115;44.484;11.314;2022-12-20T13:51:30;83.07;;;40.97;;
60257;SDS011;46115;44.484;11.314;2022-12-20T13:55:34;79.72;;;41.10;;
60257;SDS011;46115;44.484;11.314;2022-12-20T13:59:44;78.93;;;42.42;;
60257;SDS011;46115;44.484;11.314;2022-12-20T14:03:49;82.90;;;42.42;;
60257;SDS011;46115;44.484;11.314;2022-12-20T14:07:58;89.35;;;43.95;;
60257;SDS011;46115;44.484;11.314;2022-12-20T14:12:04;95.25;;;44.10;;
60257;SDS011;46115;44.484;11.314;2022-12-20T14:16:09;88.93;;;43.10;;
60257;SDS011;46115;44.484;11.314;2022-12-20T14:20:17;85.80;;;43.42;;
60257;SDS011;46115;44.484;11.314;2022-12-20T14:24:23;94.13;;;46.10;;
60257;SDS011;46115;44.484;11.314;2022-12-20T14:28:28;94.45;;;47.17;;
60257;SDS011;46115;44.484;11.314;2022-12-20T14:32:35;97.57;;;46.88;;
60257;SDS011;46115;44.484;11.314;2022-12-20T14:36:40;98.90;;;48.10;;
60257;SDS011;46115;44.484;11.314;2022-12-20T14:40:44;103.63;;;49.13;;
60257;SDS011;46115;44.484;11.314;2022-12-20T14:48:49;110.05;;;47.95;;
60257;SDS011;46115;44.484;11.314;2022-12-20T14:53:14;108.97;;;47.47;;
60257;SDS011;46115;44.484;11.314;2022-12-20T14:57:21;102.07;;;47.00;;
60257;SDS011;46115;44.484;11.314;2022-12-20T15:01:25;106.47;;;49.15;;
60257;SDS011;46115;44.484;11.314;2022-12-20T15:05:35;107.15;;;48.58;;
60257;SDS011;46115;44.484;11.314;2022-12-20T15:09:49;104.93;;;47.72;;
60257;SDS011;46115;44.484;11.314;2022-12-20T15:13:52;100.20;;;47.35;;
60257;SDS011;46115;44.484;11.314;2022-12-20T15:17:55;98.90;;;46.78;;
60257;SDS011;46115;44.484;11.314;2022-12-20T15:21:57;110.72;;;50.38;;
60257;SDS011;46115;44.484;11.314;2022-12-20T15:26:02;101.53;;;48.30;;
60257;SDS011;46115;44.484;11.314;2022-12-20T15:30:05;117.55;;;49.33;;
60257;SDS011;46115;44.484;11.314;2022-12-20T15:34:12;113.53;;;50.17;;
60257;SDS011;46115;44.484;11.314;2022-12-20T15:38:17;108.53;;;47.30;;
60257;SDS011;46115;44.484;11.314;2022-12-20T15:42:22;112.72;;;49.45;;
60257;SDS011;46115;44.484;11.314;2022-12-20T15:46:25;114.22;;;49.30;;
60257;SDS011;46115;44.484;11.314;2022-12-20T15:50:28;104.43;;;48.72;;
60257;SDS011;46115;44.484;11.314;2022-12-20T23:06:09;92.88;;;49.50;;
60257;SDS011;46115;44.484;11.314;2022-12-20T23:10:15;98.15;;;52.20;;
60257;SDS011;46115;44.484;11.314;2022-12-20T23:14:32;97.18;;;48.70;;
60257;SDS011;46115;44.484;11.314;2022-12-20T23:18:52;97.20;;;48.50;;
60257;SDS011;46115;44.484;11.314;2022-12-20T23:22:57;105.25;;;49.35;;
60257;SDS011;46115;44.484;11.314;2022-12-20T23:26:58;108.50;;;52.60;;
60257;SDS011;46115;44.484;11.314;2022-12-20T23:31:02;99.65;;;50.33;;
60257;SDS011;46115;44.484;11.314;2022-12-20T23:35:04;102.35;;;51.67;;
60257;SDS011;46115;44.484;11.314;2022-12-20T23:39:08;100.13;;;51.75;;
60257;SDS011;46115;44.484;11.314;2022-12-20T23:43:11;100.63;;;51.17;;
60257;SDS011;46115;44.484;11.314;2022-12-20T23:51:15;111.10;;;53.00;;
60257;SDS011;46115;44.484;11.314;2022-12-20T23:55:19;115.95;;;50.80;;
60257;SDS011;46115;44.484;11.314;2022-12-20T23:59:22;115.55;;;52.67;;
